sensor_id;sensor_type;location;lat;lon;timestamp;temperature;humidity
26503;DHT22;14177;51.520;6.764;2023-05-10T00:01:14;14.20;99.90
26503;DHT22;14177;51.520;6.764;2023-05-10T00:03:41;14.20;99.90
26503;DHT22;14177;51.520;6.764;2023-05-10T00:06:08;14.10;99.90
26503;DHT22;14177;51.520;6.764;2023-05-10T00:08:35;14.10;99.90
26503;DHT22;14177;51.520;6.764;2023-05-10T00:11:02;14.10;99.90
26503;DHT22;14177;51.520;6.764;2023-05-10T00:13:29;14.00;99.90
26503;DHT22;14177;51.520;6.764;2023-05-10T00:15:56;13.90;99.90
26503;DHT22;14177;51.520;6.764;2023-05-10T00:18:23;13.90;99.90
26503;DHT22;14177;51.520;6.764;2023-05-10T00:20:50;13.90;99.90
26503;DHT22;14177;51.520;6.764;2023-05-10T00:23:17;13.80;99.90
26503;DHT22;14177;51.520;6.764;2023-05-10T00:25:44;13.80;99.90
26503;DHT22;14177;51.520;6.764;2023-05-10T00:28:11;13.80;99.90
26503;DHT22;14177;51.520;6.764;2023-05-10T00:30:38;13.80;99.90
26503;DHT22;14177;51.520;6.764;2023-05-10T00:33:05;13.80;99.90
26503;DHT22;14177;51.520;6.764;2023-05-10T00:35:32;13.70;99.90
26503;DHT22;14177;51.520;6.764;2023-05-10T00:37:59;13.70;99.90
26503;DHT22;14177;51.520;6.764;2023-05-10T00:40:26;13.70;99.90
26503;DHT22;14177;51.520;6.764;2023-05-10T00:42:57;13.70;99.90
26503;DHT22;14177;51.520;6.764;2023-05-10T00:45:26;13.70;99.90
26503;DHT22;14177;51.520;6.764;2023-05-10T00:47:53;13.80;99.90
26503;DHT22;14177;51.520;6.764;2023-05-10T00:50:22;13.80;99.90
26503;DHT22;14177;51.520;6.764;2023-05-10T00:52:50;13.70;99.90
26503;DHT22;14177;51.520;6.764;2023-05-10T00:55:19;13.80;99.90
26503;DHT22;14177;51.520;6.764;2023-05-10T00:57:47;13.80;99.90
26503;DHT22;14177;51.520;6.764;2023-05-10T01:00:14;13.80;99.90
26503;DHT22;14177;51.520;6.764;2023-05-10T01:02:45;13.80;99.90
26503;DHT22;14177;51.520;6.764;2023-05-10T01:05:13;13.80;99.90
26503;DHT22;14177;51.520;6.764;2023-05-10T01:07:40;13.80;99.90
26503;DHT22;14177;51.520;6.764;2023-05-10T01:10:09;13.80;99.90
26503;DHT22;14177;51.520;6.764;2023-05-10T01:12:39;13.80;99.90
26503;DHT22;14177;51.520;6.764;2023-05-10T01:15:09;13.80;99.90
26503;DHT22;14177;51.520;6.764;2023-05-10T01:17:39;13.80;99.90
26503;DHT22;14177;51.520;6.764;2023-05-10T01:20:10;13.80;99.90
26503;DHT22;14177;51.520;6.764;2023-05-10T01:23:09;13.80;99.90
26503;DHT22;14177;51.520;6.764;2023-05-10T01:26:12;13.80;99.90
26503;DHT22;14177;51.520;6.764;2023-05-10T01:34:43;13.80;99.90
26503;DHT22;14177;51.520;6.764;2023-05-10T01:37:21;13.80;99.90
26503;DHT22;14177;51.520;6.764;2023-05-10T01:40:03;13.80;99.90
26503;DHT22;14177;51.520;6.764;2023-05-10T01:42:50;13.70;99.90
26503;DHT22;14177;51.520;6.764;2023-05-10T01:45:41;13.70;99.90
26503;DHT22;14177;51.520;6.764;2023-05-10T01:48:16;13.70;99.90
26503;DHT22;14177;51.520;6.764;2023-05-10T01:50:46;13.70;99.90
26503;DHT22;14177;51.520;6.764;2023-05-10T01:53:18;13.70;99.90
26503;DHT22;14177;51.520;6.764;2023-05-10T01:55:52;13.70;99.90
26503;DHT22;14177;51.520;6.764;2023-05-10T01:58:31;13.70;99.90
26503;DHT22;14177;51.520;6.764;2023-05-10T02:01:01;13.70;99.90
26503;DHT22;14177;51.520;6.764;2023-05-10T02:03:32;13.60;99.90
26503;DHT22;14177;51.520;6.764;2023-05-10T02:06:03;13.60;99.90
26503;DHT22;14177;51.520;6.764;2023-05-10T02:08:33;13.60;99.90
26503;DHT22;14177;51.520;6.764;2023-05-10T02:11:03;13.50;99.90
26503;DHT22;14177;51.520;6.764;2023-05-10T02:13:34;13.50;99.90
26503;DHT22;14177;51.520;6.764;2023-05-10T02:16:03;13.50;99.90
26503;DHT22;14177;51.520;6.764;2023-05-10T02:18:33;13.50;99.90
26503;DHT22;14177;51.520;6.764;2023-05-10T02:21:02;13.60;99.90
26503;DHT22;14177;51.520;6.764;2023-05-10T02:23:30;13.60;99.90
26503;DHT22;14177;51.520;6.764;2023-05-10T02:25:59;13.60;99.90
26503;DHT22;14177;51.520;6.764;2023-05-10T02:28:29;13.60;99.90
26503;DHT22;14177;51.520;6.764;2023-05-10T02:30:58;13.60;99.90
26503;DHT22;14177;51.520;6.764;2023-05-10T02:33:27;13.60;99.90
26503;DHT22;14177;51.520;6.764;2023-05-10T02:35:55;13.60;99.90
26503;DHT22;14177;51.520;6.764;2023-05-10T02:38:24;13.60;99.90
26503;DHT22;14177;51.520;6.764;2023-05-10T02:40:52;13.60;99.90
26503;DHT22;14177;51.520;6.764;2023-05-10T02:43:22;13.60;99.90
26503;DHT22;14177;51.520;6.764;2023-05-10T02:45:50;13.60;99.90
26503;DHT22;14177;51.520;6.764;2023-05-10T02:48:18;13.50;99.90
26503;DHT22;14177;51.520;6.764;2023-05-10T02:50:45;13.50;99.90
26503;DHT22;14177;51.520;6.764;2023-05-10T02:53:23;13.50;99.90
26503;DHT22;14177;51.520;6.764;2023-05-10T02:55:58;13.50;99.90
26503;DHT22;14177;51.520;6.764;2023-05-10T02:58:28;13.50;99.90
26503;DHT22;14177;51.520;6.764;2023-05-10T03:00:55;13.50;99.90
26503;DHT22;14177;51.520;6.764;2023-05-10T03:03:22;13.50;99.90
26503;DHT22;14177;51.520;6.764;2023-05-10T03:05:50;13.40;99.90
26503;DHT22;14177;51.520;6.764;2023-05-10T03:08:17;13.50;99.90
26503;DHT22;14177;51.520;6.764;2023-05-10T03:14:12;13.50;99.90
26503;DHT22;14177;51.520;6.764;2023-05-10T03:17:11;13.50;99.90
26503;DHT22;14177;51.520;6.764;2023-05-10T03:19:53;13.50;99.90
26503;DHT22;14177;51.520;6.764;2023-05-10T03:22:54;13.50;99.90
26503;DHT22;14177;51.520;6.764;2023-05-10T03:25:26;13.50;99.90
26503;DHT22;14177;51.520;6.764;2023-05-10T03:27:54;13.50;99.90
26503;DHT22;14177;51.520;6.764;2023-05-10T03:30:24;13.50;99.90
26503;DHT22;14177;51.520;6.764;2023-05-10T03:32:52;13.50;99.90
26503;DHT22;14177;51.520;6.764;2023-05-10T03:35:19;13.50;99.90
26503;DHT22;14177;51.520;6.764;2023-05-10T03:37:46;13.50;99.90
26503;DHT22;14177;51.520;6.764;2023-05-10T03:40:14;13.50;99.90
26503;DHT22;14177;51.520;6.764;2023-05-10T03:42:42;13.50;99.90
26503;DHT22;14177;51.520;6.764;2023-05-10T03:45:10;13.50;99.90
26503;DHT22;14177;51.520;6.764;2023-05-10T03:47:37;13.50;99.90
26503;DHT22;14177;51.520;6.764;2023-05-10T03:50:05;13.50;99.90
26503;DHT22;14177;51.520;6.764;2023-05-10T03:52:32;13.60;99.90
26503;DHT22;14177;51.520;6.764;2023-05-10T03:54:59;13.60;99.90
26503;DHT22;14177;51.520;6.764;2023-05-10T03:57:26;13.60;99.90
26503;DHT22;14177;51.520;6.764;2023-05-10T03:59:53;13.60;99.90
26503;DHT22;14177;51.520;6.764;2023-05-10T04:02:20;13.60;99.90
26503;DHT22;14177;51.520;6.764;2023-05-10T04:04:47;13.60;99.90
26503;DHT22;14177;51.520;6.764;2023-05-10T04:07:14;13.60;99.90
26503;DHT22;14177;51.520;6.764;2023-05-10T04:09:42;13.60;99.90
26503;DHT22;14177;51.520;6.764;2023-05-10T04:12:09;13.50;99.90
26503;DHT22;14177;51.520;6.764;2023-05-10T04:14:36;13.50;99.90
26503;DHT22;14177;51.520;6.764;2023-05-10T04:17:03;13.60;99.90
26503;DHT22;14177;51.520;6.764;2023-05-10T04:19:31;13.50;99.90
26503;DHT22;14177;51.520;6.764;2023-05-10T04:21:58;13.60;99.90
26503;DHT22;14177;51.520;6.764;2023-05-10T04:24:25;13.60;99.90
26503;DHT22;14177;51.520;6.764;2023-05-10T04:26:54;13.60;99.90
26503;DHT22;14177;51.520;6.764;2023-05-10T04:29:23;13.60;99.90
26503;DHT22;14177;51.520;6.764;2023-05-10T04:31:50;13.60;99.90
26503;DHT22;14177;51.520;6.764;2023-05-10T04:34:17;13.60;99.90
26503;DHT22;14177;51.520;6.764;2023-05-10T04:36:45;13.60;99.90
26503;DHT22;14177;51.520;6.764;2023-05-10T04:39:12;13.60;99.90
26503;DHT22;14177;51.520;6.764;2023-05-10T04:41:40;13.70;99.90
26503;DHT22;14177;51.520;6.764;2023-05-10T04:44:07;13.60;99.90
26503;DHT22;14177;51.520;6.764;2023-05-10T04:46:34;13.70;99.90
26503;DHT22;14177;51.520;6.764;2023-05-10T04:49:01;13.70;99.90
26503;DHT22;14177;51.520;6.764;2023-05-10T04:51:28;13.70;99.90
26503;DHT22;14177;51.520;6.764;2023-05-10T04:53:54;13.70;99.90
26503;DHT22;14177;51.520;6.764;2023-05-10T04:56:31;13.70;99.90
26503;DHT22;14177;51.520;6.764;2023-05-10T04:58:58;13.70;99.90
26503;DHT22;14177;51.520;6.764;2023-05-10T05:01:25;13.80;99.90
26503;DHT22;14177;51.520;6.764;2023-05-10T05:03:52;13.80;99.90
26503;DHT22;14177;51.520;6.764;2023-05-10T05:06:20;13.80;99.90
26503;DHT22;14177;51.520;6.764;2023-05-10T05:08:51;13.80;99.90
26503;DHT22;14177;51.520;6.764;2023-05-10T05:11:18;13.80;99.90
26503;DHT22;14177;51.520;6.764;2023-05-10T05:13:45;13.80;99.90
26503;DHT22;14177;51.520;6.764;2023-05-10T05:16:12;13.80;99.90
26503;DHT22;14177;51.520;6.764;2023-05-10T05:18:39;13.80;99.90
26503;DHT22;14177;51.520;6.764;2023-05-10T05:21:16;13.80;99.90
26503;DHT22;14177;51.520;6.764;2023-05-10T05:23:43;13.90;99.90
26503;DHT22;14177;51.520;6.764;2023-05-10T05:26:11;13.90;99.90
26503;DHT22;14177;51.520;6.764;2023-05-10T05:28:38;13.90;99.90
26503;DHT22;14177;51.520;6.764;2023-05-10T05:31:08;13.90;99.90
26503;DHT22;14177;51.520;6.764;2023-05-10T05:33:36;13.90;99.90
26503;DHT22;14177;51.520;6.764;2023-05-10T05:36:04;13.90;99.90
26503;DHT22;14177;51.520;6.764;2023-05-10T05:38:32;13.90;99.90
26503;DHT22;14177;51.520;6.764;2023-05-10T05:40:59;13.90;99.90
26503;DHT22;14177;51.520;6.764;2023-05-10T05:43:26;13.90;99.90
26503;DHT22;14177;51.520;6.764;2023-05-10T05:45:53;13.90;99.90
26503;DHT22;14177;51.520;6.764;2023-05-10T05:48:21;13.90;99.90
26503;DHT22;14177;51.520;6.764;2023-05-10T05:50:48;14.00;99.90
26503;DHT22;14177;51.520;6.764;2023-05-10T05:53:14;14.00;99.90
26503;DHT22;14177;51.520;6.764;2023-05-10T05:56:00;14.00;99.90
26503;DHT22;14177;51.520;6.764;2023-05-10T05:58:28;14.00;99.90
26503;DHT22;14177;51.520;6.764;2023-05-10T06:00:55;14.00;99.90
26503;DHT22;14177;51.520;6.764;2023-05-10T06:03:22;14.00;99.90
26503;DHT22;14177;51.520;6.764;2023-05-10T06:05:49;14.00;99.90
26503;DHT22;14177;51.520;6.764;2023-05-10T06:08:16;14.00;99.90
26503;DHT22;14177;51.520;6.764;2023-05-10T06:10:43;14.00;99.90
26503;DHT22;14177;51.520;6.764;2023-05-10T06:13:10;14.10;99.90
26503;DHT22;14177;51.520;6.764;2023-05-10T06:15:38;14.10;99.90
26503;DHT22;14177;51.520;6.764;2023-05-10T06:18:05;14.30;99.90
26503;DHT22;14177;51.520;6.764;2023-05-10T06:20:32;14.30;99.90
26503;DHT22;14177;51.520;6.764;2023-05-10T06:22:59;14.30;99.90
26503;DHT22;14177;51.520;6.764;2023-05-10T06:25:26;14.40;99.90
26503;DHT22;14177;51.520;6.764;2023-05-10T06:27:53;14.40;99.90
26503;DHT22;14177;51.520;6.764;2023-05-10T06:30:25;14.40;99.90
26503;DHT22;14177;51.520;6.764;2023-05-10T06:32:55;14.50;99.90
26503;DHT22;14177;51.520;6.764;2023-05-10T06:35:23;14.50;99.90
26503;DHT22;14177;51.520;6.764;2023-05-10T06:37:50;14.50;99.90
26503;DHT22;14177;51.520;6.764;2023-05-10T06:40:18;14.40;99.90
26503;DHT22;14177;51.520;6.764;2023-05-10T06:42:46;14.40;99.90
26503;DHT22;14177;51.520;6.764;2023-05-10T06:45:14;14.30;99.90
26503;DHT22;14177;51.520;6.764;2023-05-10T06:47:43;14.30;99.90
26503;DHT22;14177;51.520;6.764;2023-05-10T06:50:10;14.40;99.90
26503;DHT22;14177;51.520;6.764;2023-05-10T06:52:40;14.30;99.90
26503;DHT22;14177;51.520;6.764;2023-05-10T06:55:08;14.40;99.90
26503;DHT22;14177;51.520;6.764;2023-05-10T06:57:35;14.50;99.90
26503;DHT22;14177;51.520;6.764;2023-05-10T07:00:03;14.50;99.90
26503;DHT22;14177;51.520;6.764;2023-05-10T07:02:33;14.50;99.90
26503;DHT22;14177;51.520;6.764;2023-05-10T07:05:00;14.60;99.90
26503;DHT22;14177;51.520;6.764;2023-05-10T07:07:29;14.70;99.90
26503;DHT22;14177;51.520;6.764;2023-05-10T07:09:56;14.80;99.90
26503;DHT22;14177;51.520;6.764;2023-05-10T07:12:24;14.90;99.90
26503;DHT22;14177;51.520;6.764;2023-05-10T07:14:52;14.90;99.90
26503;DHT22;14177;51.520;6.764;2023-05-10T07:17:19;14.90;99.90
26503;DHT22;14177;51.520;6.764;2023-05-10T07:19:46;14.90;99.90
26503;DHT22;14177;51.520;6.764;2023-05-10T07:22:13;15.00;99.90
26503;DHT22;14177;51.520;6.764;2023-05-10T07:24:40;15.00;99.90
26503;DHT22;14177;51.520;6.764;2023-05-10T07:27:07;15.00;99.90
26503;DHT22;14177;51.520;6.764;2023-05-10T07:29:35;15.10;99.90
26503;DHT22;14177;51.520;6.764;2023-05-10T07:32:02;15.10;99.90
26503;DHT22;14177;51.520;6.764;2023-05-10T07:34:29;15.10;99.90
26503;DHT22;14177;51.520;6.764;2023-05-10T07:37:00;15.10;99.90
26503;DHT22;14177;51.520;6.764;2023-05-10T07:39:28;15.10;99.90
26503;DHT22;14177;51.520;6.764;2023-05-10T07:41:55;15.10;99.90
26503;DHT22;14177;51.520;6.764;2023-05-10T07:44:22;15.00;99.90
26503;DHT22;14177;51.520;6.764;2023-05-10T07:46:49;15.10;99.90
26503;DHT22;14177;51.520;6.764;2023-05-10T07:49:17;15.10;99.90
26503;DHT22;14177;51.520;6.764;2023-05-10T07:51:44;15.10;99.90
26503;DHT22;14177;51.520;6.764;2023-05-10T07:54:11;15.10;99.90
26503;DHT22;14177;51.520;6.764;2023-05-10T07:56:40;15.10;99.90
26503;DHT22;14177;51.520;6.764;2023-05-10T07:59:16;15.20;99.90
26503;DHT22;14177;51.520;6.764;2023-05-10T08:01:43;15.20;99.90
26503;DHT22;14177;51.520;6.764;2023-05-10T08:04:11;15.30;99.90
26503;DHT22;14177;51.520;6.764;2023-05-10T08:06:39;15.40;99.90
26503;DHT22;14177;51.520;6.764;2023-05-10T08:09:06;15.50;99.90
26503;DHT22;14177;51.520;6.764;2023-05-10T08:11:35;15.50;99.90
26503;DHT22;14177;51.520;6.764;2023-05-10T08:14:02;15.60;99.90
26503;DHT22;14177;51.520;6.764;2023-05-10T08:16:29;15.70;99.90
26503;DHT22;14177;51.520;6.764;2023-05-10T08:18:56;15.80;99.90
26503;DHT22;14177;51.520;6.764;2023-05-10T08:21:23;16.00;99.90
26503;DHT22;14177;51.520;6.764;2023-05-10T08:23:50;16.30;99.90
26503;DHT22;14177;51.520;6.764;2023-05-10T08:26:17;16.50;99.90
26503;DHT22;14177;51.520;6.764;2023-05-10T08:28:44;16.70;99.90
26503;DHT22;14177;51.520;6.764;2023-05-10T08:31:11;16.80;99.90
26503;DHT22;14177;51.520;6.764;2023-05-10T08:33:38;16.70;99.90
26503;DHT22;14177;51.520;6.764;2023-05-10T08:36:08;16.70;99.90
26503;DHT22;14177;51.520;6.764;2023-05-10T08:38:35;16.70;99.90
26503;DHT22;14177;51.520;6.764;2023-05-10T08:41:02;16.60;99.90
26503;DHT22;14177;51.520;6.764;2023-05-10T08:43:31;16.60;99.90
26503;DHT22;14177;51.520;6.764;2023-05-10T08:46:00;16.50;99.90
26503;DHT22;14177;51.520;6.764;2023-05-10T08:48:33;16.50;99.90
26503;DHT22;14177;51.520;6.764;2023-05-10T08:51:03;16.50;99.90
26503;DHT22;14177;51.520;6.764;2023-05-10T08:53:31;16.50;99.90
26503;DHT22;14177;51.520;6.764;2023-05-10T08:56:02;16.50;99.90
26503;DHT22;14177;51.520;6.764;2023-05-10T08:58:30;16.50;99.90
26503;DHT22;14177;51.520;6.764;2023-05-10T09:00:58;16.60;99.90
26503;DHT22;14177;51.520;6.764;2023-05-10T09:03:26;16.60;99.90
26503;DHT22;14177;51.520;6.764;2023-05-10T09:05:53;16.50;99.90
26503;DHT22;14177;51.520;6.764;2023-05-10T09:08:23;16.40;99.90
26503;DHT22;14177;51.520;6.764;2023-05-10T09:10:55;16.40;99.90
26503;DHT22;14177;51.520;6.764;2023-05-10T09:13:23;16.50;99.90
26503;DHT22;14177;51.520;6.764;2023-05-10T09:15:51;16.50;99.90
26503;DHT22;14177;51.520;6.764;2023-05-10T09:18:19;16.50;99.90
26503;DHT22;14177;51.520;6.764;2023-05-10T09:20:48;16.50;99.90
26503;DHT22;14177;51.520;6.764;2023-05-10T09:23:15;16.50;99.90
26503;DHT22;14177;51.520;6.764;2023-05-10T09:25:42;16.40;99.90
26503;DHT22;14177;51.520;6.764;2023-05-10T09:28:10;16.50;99.90
26503;DHT22;14177;51.520;6.764;2023-05-10T09:30:38;16.50;99.90
26503;DHT22;14177;51.520;6.764;2023-05-10T09:33:05;16.40;99.90
26503;DHT22;14177;51.520;6.764;2023-05-10T09:35:33;16.40;99.90
26503;DHT22;14177;51.520;6.764;2023-05-10T09:38:03;16.30;99.90
26503;DHT22;14177;51.520;6.764;2023-05-10T09:40:31;16.30;99.90
26503;DHT22;14177;51.520;6.764;2023-05-10T09:43:04;16.30;99.90
26503;DHT22;14177;51.520;6.764;2023-05-10T09:45:34;16.20;99.90
26503;DHT22;14177;51.520;6.764;2023-05-10T09:48:05;16.10;99.90
26503;DHT22;14177;51.520;6.764;2023-05-10T09:50:33;16.10;99.90
26503;DHT22;14177;51.520;6.764;2023-05-10T09:53:02;16.10;99.90
26503;DHT22;14177;51.520;6.764;2023-05-10T09:55:45;16.10;99.90
26503;DHT22;14177;51.520;6.764;2023-05-10T09:58:13;16.10;99.90
26503;DHT22;14177;51.520;6.764;2023-05-10T10:00:42;16.10;99.90
26503;DHT22;14177;51.520;6.764;2023-05-10T10:03:15;16.20;99.90
26503;DHT22;14177;51.520;6.764;2023-05-10T10:05:44;16.10;99.90
26503;DHT22;14177;51.520;6.764;2023-05-10T10:08:13;16.00;99.90
26503;DHT22;14177;51.520;6.764;2023-05-10T10:10:42;15.80;99.90
26503;DHT22;14177;51.520;6.764;2023-05-10T10:13:12;15.70;99.90
26503;DHT22;14177;51.520;6.764;2023-05-10T10:15:39;15.60;99.90
26503;DHT22;14177;51.520;6.764;2023-05-10T10:18:06;15.50;99.90
26503;DHT22;14177;51.520;6.764;2023-05-10T10:20:37;15.50;99.90
26503;DHT22;14177;51.520;6.764;2023-05-10T10:23:04;15.50;99.90
26503;DHT22;14177;51.520;6.764;2023-05-10T10:25:31;15.40;99.90
26503;DHT22;14177;51.520;6.764;2023-05-10T10:28:10;15.50;99.90
26503;DHT22;14177;51.520;6.764;2023-05-10T10:30:54;15.50;99.90
26503;DHT22;14177;51.520;6.764;2023-05-10T10:33:40;15.70;99.90
26503;DHT22;14177;51.520;6.764;2023-05-10T10:36:19;15.90;99.90
26503;DHT22;14177;51.520;6.764;2023-05-10T10:41:33;16.10;99.90
26503;DHT22;14177;51.520;6.764;2023-05-10T11:02:57;16.50;99.90
26503;DHT22;14177;51.520;6.764;2023-05-10T11:05:48;16.50;99.90
26503;DHT22;14177;51.520;6.764;2023-05-10T11:08:32;16.60;99.90
26503;DHT22;14177;51.520;6.764;2023-05-10T11:11:06;16.70;99.90
26503;DHT22;14177;51.520;6.764;2023-05-10T11:13:39;16.70;99.90
26503;DHT22;14177;51.520;6.764;2023-05-10T11:16:17;16.80;99.90
26503;DHT22;14177;51.520;6.764;2023-05-10T11:19:12;16.80;99.90
26503;DHT22;14177;51.520;6.764;2023-05-10T11:22:12;16.90;99.90
26503;DHT22;14177;51.520;6.764;2023-05-10T11:24:40;17.00;99.90
26503;DHT22;14177;51.520;6.764;2023-05-10T11:27:23;17.10;99.90
26503;DHT22;14177;51.520;6.764;2023-05-10T11:29:53;17.10;99.90
26503;DHT22;14177;51.520;6.764;2023-05-10T11:32:20;17.10;99.90
26503;DHT22;14177;51.520;6.764;2023-05-10T11:34:47;17.10;99.90
26503;DHT22;14177;51.520;6.764;2023-05-10T11:37:14;17.10;99.90
26503;DHT22;14177;51.520;6.764;2023-05-10T11:39:45;17.10;99.90
26503;DHT22;14177;51.520;6.764;2023-05-10T11:42:14;17.10;99.90
26503;DHT22;14177;51.520;6.764;2023-05-10T11:44:41;17.00;99.90
26503;DHT22;14177;51.520;6.764;2023-05-10T11:47:09;17.10;99.90
26503;DHT22;14177;51.520;6.764;2023-05-10T11:49:38;17.20;99.90
26503;DHT22;14177;51.520;6.764;2023-05-10T11:52:08;17.10;99.90
26503;DHT22;14177;51.520;6.764;2023-05-10T11:54:37;17.10;99.90
26503;DHT22;14177;51.520;6.764;2023-05-10T11:57:04;17.10;99.90
26503;DHT22;14177;51.520;6.764;2023-05-10T11:59:31;17.10;99.90
26503;DHT22;14177;51.520;6.764;2023-05-10T12:01:58;17.10;99.90
26503;DHT22;14177;51.520;6.764;2023-05-10T12:04:26;17.10;99.90
26503;DHT22;14177;51.520;6.764;2023-05-10T12:06:56;17.10;99.90
26503;DHT22;14177;51.520;6.764;2023-05-10T12:09:23;17.10;99.90
26503;DHT22;14177;51.520;6.764;2023-05-10T12:11:55;17.20;99.90
26503;DHT22;14177;51.520;6.764;2023-05-10T12:14:26;17.30;99.90
26503;DHT22;14177;51.520;6.764;2023-05-10T12:16:52;17.30;99.90
26503;DHT22;14177;51.520;6.764;2023-05-10T12:19:20;17.20;99.90
26503;DHT22;14177;51.520;6.764;2023-05-10T12:21:47;17.30;99.90
26503;DHT22;14177;51.520;6.764;2023-05-10T12:24:15;17.30;99.90
26503;DHT22;14177;51.520;6.764;2023-05-10T12:26:45;17.30;99.90
26503;DHT22;14177;51.520;6.764;2023-05-10T12:34:33;17.20;99.90
26503;DHT22;14177;51.520;6.764;2023-05-10T12:37:03;17.30;99.90
26503;DHT22;14177;51.520;6.764;2023-05-10T12:39:44;17.50;99.90
26503;DHT22;14177;51.520;6.764;2023-05-10T12:42:12;17.70;99.90
26503;DHT22;14177;51.520;6.764;2023-05-10T12:44:39;17.80;99.90
26503;DHT22;14177;51.520;6.764;2023-05-10T12:47:07;17.80;99.90
26503;DHT22;14177;51.520;6.764;2023-05-10T12:49:34;17.90;99.90
26503;DHT22;14177;51.520;6.764;2023-05-10T12:52:01;18.00;99.90
26503;DHT22;14177;51.520;6.764;2023-05-10T12:54:28;18.20;99.90
26503;DHT22;14177;51.520;6.764;2023-05-10T12:56:54;18.50;99.90
26503;DHT22;14177;51.520;6.764;2023-05-10T12:59:23;18.70;99.90
26503;DHT22;14177;51.520;6.764;2023-05-10T13:01:49;18.90;99.90
26503;DHT22;14177;51.520;6.764;2023-05-10T13:04:16;19.10;99.90
26503;DHT22;14177;51.520;6.764;2023-05-10T13:06:44;19.40;99.90
26503;DHT22;14177;51.520;6.764;2023-05-10T13:09:11;19.60;99.90
26503;DHT22;14177;51.520;6.764;2023-05-10T13:11:38;19.80;99.90
26503;DHT22;14177;51.520;6.764;2023-05-10T13:14:05;19.80;99.90
26503;DHT22;14177;51.520;6.764;2023-05-10T13:16:32;19.80;99.90
26503;DHT22;14177;51.520;6.764;2023-05-10T13:18:59;19.80;99.90
26503;DHT22;14177;51.520;6.764;2023-05-10T13:21:26;19.80;99.90
26503;DHT22;14177;51.520;6.764;2023-05-10T13:23:53;20.00;99.90
26503;DHT22;14177;51.520;6.764;2023-05-10T13:26:20;20.20;99.90
26503;DHT22;14177;51.520;6.764;2023-05-10T13:28:50;20.20;99.90
26503;DHT22;14177;51.520;6.764;2023-05-10T13:31:18;20.10;99.90
26503;DHT22;14177;51.520;6.764;2023-05-10T13:33:45;20.00;99.90
26503;DHT22;14177;51.520;6.764;2023-05-10T13:36:12;19.90;99.90
26503;DHT22;14177;51.520;6.764;2023-05-10T13:38:39;19.80;99.90
26503;DHT22;14177;51.520;6.764;2023-05-10T13:41:06;19.80;99.90
26503;DHT22;14177;51.520;6.764;2023-05-10T13:43:33;19.80;99.90
26503;DHT22;14177;51.520;6.764;2023-05-10T13:46:02;20.00;99.90
26503;DHT22;14177;51.520;6.764;2023-05-10T13:48:29;20.30;99.90
26503;DHT22;14177;51.520;6.764;2023-05-10T13:50:56;20.50;99.90
26503;DHT22;14177;51.520;6.764;2023-05-10T13:53:23;20.60;99.90
26503;DHT22;14177;51.520;6.764;2023-05-10T13:55:50;21.00;99.90
26503;DHT22;14177;51.520;6.764;2023-05-10T13:58:17;21.20;97.10
26503;DHT22;14177;51.520;6.764;2023-05-10T14:00:43;21.10;95.60
26503;DHT22;14177;51.520;6.764;2023-05-10T14:03:10;21.10;97.10
26503;DHT22;14177;51.520;6.764;2023-05-10T14:05:38;21.30;97.30
26503;DHT22;14177;51.520;6.764;2023-05-10T14:08:05;21.50;97.30
26503;DHT22;14177;51.520;6.764;2023-05-10T14:10:32;21.60;96.00
26503;DHT22;14177;51.520;6.764;2023-05-10T14:12:59;21.70;97.10
26503;DHT22;14177;51.520;6.764;2023-05-10T14:15:26;21.80;96.40
26503;DHT22;14177;51.520;6.764;2023-05-10T14:17:53;21.90;94.00
26503;DHT22;14177;51.520;6.764;2023-05-10T14:20:20;22.20;94.30
26503;DHT22;14177;51.520;6.764;2023-05-10T14:22:47;22.20;94.30
26503;DHT22;14177;51.520;6.764;2023-05-10T14:25:14;22.50;92.30
26503;DHT22;14177;51.520;6.764;2023-05-10T14:27:42;22.60;91.90
26503;DHT22;14177;51.520;6.764;2023-05-10T14:30:09;22.70;91.50
26503;DHT22;14177;51.520;6.764;2023-05-10T14:32:36;22.60;90.30
26503;DHT22;14177;51.520;6.764;2023-05-10T14:35:04;22.60;90.90
26503;DHT22;14177;51.520;6.764;2023-05-10T14:37:32;22.60;90.60
26503;DHT22;14177;51.520;6.764;2023-05-10T14:39:59;22.50;88.40
26503;DHT22;14177;51.520;6.764;2023-05-10T14:42:27;22.20;88.60
26503;DHT22;14177;51.520;6.764;2023-05-10T14:44:55;21.80;91.50
26503;DHT22;14177;51.520;6.764;2023-05-10T14:47:22;21.60;91.00
26503;DHT22;14177;51.520;6.764;2023-05-10T14:49:49;21.20;93.20
26503;DHT22;14177;51.520;6.764;2023-05-10T14:52:16;21.00;94.90
26503;DHT22;14177;51.520;6.764;2023-05-10T14:54:43;20.60;95.30
26503;DHT22;14177;51.520;6.764;2023-05-10T14:57:10;20.50;97.40
26503;DHT22;14177;51.520;6.764;2023-05-10T14:59:37;20.30;97.50
26503;DHT22;14177;51.520;6.764;2023-05-10T15:02:05;20.30;99.20
26503;DHT22;14177;51.520;6.764;2023-05-10T15:04:35;20.20;99.10
26503;DHT22;14177;51.520;6.764;2023-05-10T15:07:03;20.20;99.90
26503;DHT22;14177;51.520;6.764;2023-05-10T15:09:29;20.30;99.80
26503;DHT22;14177;51.520;6.764;2023-05-10T15:11:57;20.30;99.60
26503;DHT22;14177;51.520;6.764;2023-05-10T15:14:23;20.20;99.90
26503;DHT22;14177;51.520;6.764;2023-05-10T15:16:51;20.10;99.90
26503;DHT22;14177;51.520;6.764;2023-05-10T15:19:19;20.10;99.90
26503;DHT22;14177;51.520;6.764;2023-05-10T15:21:46;20.00;99.90
26503;DHT22;14177;51.520;6.764;2023-05-10T15:24:13;20.00;99.90
26503;DHT22;14177;51.520;6.764;2023-05-10T15:26:41;19.80;99.90
26503;DHT22;14177;51.520;6.764;2023-05-10T15:29:08;19.50;99.90
26503;DHT22;14177;51.520;6.764;2023-05-10T15:31:35;19.20;99.90
26503;DHT22;14177;51.520;6.764;2023-05-10T15:34:02;19.00;99.90
26503;DHT22;14177;51.520;6.764;2023-05-10T15:36:31;18.80;99.90
26503;DHT22;14177;51.520;6.764;2023-05-10T15:38:58;18.70;99.90
26503;DHT22;14177;51.520;6.764;2023-05-10T15:41:25;18.50;99.90
26503;DHT22;14177;51.520;6.764;2023-05-10T15:43:51;18.20;99.90
26503;DHT22;14177;51.520;6.764;2023-05-10T15:46:19;18.00;99.90
26503;DHT22;14177;51.520;6.764;2023-05-10T15:48:47;17.80;99.90
26503;DHT22;14177;51.520;6.764;2023-05-10T15:51:13;17.60;99.90
26503;DHT22;14177;51.520;6.764;2023-05-10T15:53:41;17.50;99.90
26503;DHT22;14177;51.520;6.764;2023-05-10T15:56:28;17.40;99.90
26503;DHT22;14177;51.520;6.764;2023-05-10T15:58:55;17.40;99.90
26503;DHT22;14177;51.520;6.764;2023-05-10T16:01:22;17.40;99.90
26503;DHT22;14177;51.520;6.764;2023-05-10T16:03:49;17.30;99.90
26503;DHT22;14177;51.520;6.764;2023-05-10T16:06:16;17.20;99.90
26503;DHT22;14177;51.520;6.764;2023-05-10T16:08:43;17.10;99.90
26503;DHT22;14177;51.520;6.764;2023-05-10T16:11:10;17.00;99.90
26503;DHT22;14177;51.520;6.764;2023-05-10T16:13:37;16.80;99.90
26503;DHT22;14177;51.520;6.764;2023-05-10T16:16:04;16.70;99.90
26503;DHT22;14177;51.520;6.764;2023-05-10T16:18:32;16.60;99.90